createdAt,value
2022-10-20T00:00:16.816Z,99.90
2022-10-20T00:02:45.916Z,99.90
2022-10-20T00:05:15.006Z,99.90
2022-10-20T00:07:46.575Z,99.90
2022-10-20T00:10:15.235Z,99.90
2022-10-20T00:12:44.074Z,99.90
2022-10-20T00:15:17.930Z,99.90
2022-10-20T00:17:49.086Z,99.90
2022-10-20T00:20:18.329Z,99.90
2022-10-20T00:22:47.362Z,99.90
2022-10-20T00:25:16.482Z,99.90
2022-10-20T00:27:45.853Z,99.90
2022-10-20T00:30:16.467Z,99.90
2022-10-20T00:32:45.707Z,99.90
2022-10-20T00:35:16.733Z,99.90
2022-10-20T00:37:45.794Z,99.90
2022-10-20T00:40:14.798Z,99.90
2022-10-20T00:42:46.213Z,99.90
2022-10-20T00:45:19.674Z,99.90
2022-10-20T00:47:51.207Z,99.90
2022-10-20T00:50:23.909Z,99.90
2022-10-20T00:52:54.338Z,99.90
2022-10-20T00:55:27.173Z,99.90
2022-10-20T00:57:59.578Z,99.90
2022-10-20T01:00:31.228Z,99.90
2022-10-20T01:03:02.844Z,99.90
2022-10-20T01:05:32.157Z,99.90
2022-10-20T01:08:01.979Z,99.90
2022-10-20T01:10:40.576Z,99.90
2022-10-20T01:13:17.598Z,99.90
2022-10-20T01:15:59.104Z,99.90
2022-10-20T01:18:33.697Z,99.90
2022-10-20T01:21:32.369Z,99.90
2022-10-20T01:27:28.621Z,99.90
2022-10-20T01:30:07.229Z,99.90
2022-10-20T01:33:05.064Z,99.90
2022-10-20T01:35:44.262Z,99.90
2022-10-20T01:38:21.324Z,99.90
2022-10-20T01:40:54.429Z,99.90
2022-10-20T01:43:26.922Z,99.90
2022-10-20T01:46:02.724Z,99.90
2022-10-20T01:48:38.368Z,99.90
2022-10-20T01:51:08.013Z,99.90
2022-10-20T01:53:39.168Z,99.90
2022-10-20T01:56:17.587Z,99.90
2022-10-20T01:59:18.492Z,99.90
2022-10-20T02:02:04.687Z,99.90
2022-10-20T02:04:44.971Z,99.90
2022-10-20T02:07:20.124Z,99.90
2022-10-20T02:09:52.927Z,99.90
2022-10-20T02:12:28.816Z,99.90
2022-10-20T02:14:58.240Z,99.90
2022-10-20T02:17:30.836Z,99.90
2022-10-20T02:20:00.575Z,99.90
2022-10-20T02:22:29.466Z,99.90
2022-10-20T02:24:58.403Z,99.90
2022-10-20T02:27:30.887Z,99.90
2022-10-20T02:30:04.165Z,99.90
2022-10-20T02:32:37.333Z,99.90
2022-10-20T02:35:08.439Z,99.90
2022-10-20T02:37:37.940Z,99.90
2022-10-20T02:40:08.411Z,99.90
2022-10-20T02:42:37.868Z,99.90
2022-10-20T02:45:07.983Z,99.90
2022-10-20T02:47:39.268Z,99.90
2022-10-20T02:50:09.906Z,99.90
2022-10-20T02:52:39.302Z,99.90
2022-10-20T02:55:10.932Z,99.90
2022-10-20T02:57:40.435Z,99.90
2022-10-20T03:00:10.755Z,99.90
2022-10-20T03:02:41.361Z,99.90
2022-10-20T03:05:10.923Z,99.90
2022-10-20T03:07:39.531Z,99.90
2022-10-20T03:10:09.467Z,99.90
2022-10-20T03:12:39.015Z,99.90
2022-10-20T03:15:08.891Z,99.90
2022-10-20T03:17:38.212Z,99.90
2022-10-20T03:20:10.782Z,99.90
2022-10-20T03:22:40.102Z,99.90
2022-10-20T03:25:09.675Z,99.90
2022-10-20T03:27:40.991Z,99.90
2022-10-20T03:30:11.402Z,99.90
2022-10-20T03:32:40.548Z,99.90
2022-10-20T03:35:12.355Z,99.90
2022-10-20T03:37:41.950Z,99.90
2022-10-20T03:40:14.094Z,99.90
2022-10-20T03:42:45.298Z,99.90
2022-10-20T03:45:17.773Z,99.90
2022-10-20T03:47:48.974Z,99.90
2022-10-20T03:50:22.451Z,99.90
2022-10-20T03:52:52.114Z,99.90
2022-10-20T03:55:22.496Z,99.90
2022-10-20T03:57:52.354Z,99.90
2022-10-20T04:00:21.754Z,99.90
2022-10-20T04:02:50.934Z,99.90
2022-10-20T04:05:23.116Z,99.90
2022-10-20T04:07:52.477Z,99.90
2022-10-20T04:10:22.657Z,99.90
2022-10-20T04:12:52.033Z,99.90
2022-10-20T04:15:21.342Z,99.90
2022-10-20T04:17:50.307Z,99.90
2022-10-20T04:20:23.473Z,99.90
2022-10-20T04:22:52.349Z,99.90
2022-10-20T04:25:21.577Z,99.90
2022-10-20T04:27:53.401Z,99.90
2022-10-20T04:30:22.807Z,99.90
2022-10-20T04:32:52.037Z,99.90
2022-10-20T04:35:22.338Z,99.90
2022-10-20T04:37:51.510Z,99.90
2022-10-20T04:40:20.333Z,99.90
2022-10-20T04:42:51.173Z,99.90
2022-10-20T04:45:20.667Z,99.90
2022-10-20T04:47:49.849Z,99.90
2022-10-20T04:50:22.745Z,99.90
2022-10-20T04:53:09.586Z,99.90
2022-10-20T04:55:39.597Z,99.90
2022-10-20T04:58:08.602Z,99.90
2022-10-20T05:00:40.341Z,99.90
2022-10-20T05:05:40.246Z,99.90
2022-10-20T05:08:10.640Z,99.90
2022-10-20T05:10:39.901Z,99.90
2022-10-20T05:13:09.465Z,99.90
2022-10-20T05:15:38.364Z,99.90
2022-10-20T05:18:07.726Z,99.90
2022-10-20T05:20:41.114Z,99.90
2022-10-20T05:23:11.976Z,99.90
2022-10-20T05:25:41.921Z,99.90
2022-10-20T05:28:11.594Z,99.90
2022-10-20T05:33:15.192Z,99.90
2022-10-20T05:35:44.174Z,99.90
2022-10-20T05:38:19.509Z,99.90
2022-10-20T05:40:50.557Z,99.90
2022-10-20T05:43:19.672Z,99.90
2022-10-20T05:45:54.716Z,99.90
2022-10-20T05:48:23.912Z,99.90
2022-10-20T05:50:53.706Z,99.90
2022-10-20T05:53:24.314Z,99.90
2022-10-20T05:55:54.001Z,99.90
2022-10-20T05:58:23.596Z,99.90
2022-10-20T06:00:54.250Z,99.90
2022-10-20T06:03:24.886Z,99.90
2022-10-20T06:06:00.364Z,99.90
2022-10-20T06:08:34.395Z,99.90
2022-10-20T06:11:10.408Z,99.90
2022-10-20T06:13:39.865Z,99.90
2022-10-20T06:16:12.025Z,99.90
2022-10-20T06:18:43.395Z,99.90
2022-10-20T06:21:17.459Z,99.90
2022-10-20T06:23:48.551Z,99.90
2022-10-20T06:26:19.456Z,99.90
2022-10-20T06:28:49.785Z,99.90
2022-10-20T06:31:21.564Z,99.90
2022-10-20T06:33:51.507Z,99.90
2022-10-20T06:36:24.100Z,99.90
2022-10-20T06:39:02.328Z,99.90
2022-10-20T06:41:38.927Z,99.90
2022-10-20T06:44:08.868Z,99.90
2022-10-20T06:46:39.139Z,99.90
2022-10-20T06:49:09.619Z,99.90
2022-10-20T06:51:39.321Z,99.90
2022-10-20T06:54:10.076Z,99.90
2022-10-20T06:56:41.070Z,99.90
2022-10-20T06:59:10.776Z,99.90
2022-10-20T07:01:41.358Z,99.90
2022-10-20T07:04:14.754Z,99.90
2022-10-20T07:06:48.274Z,99.90
2022-10-20T07:09:21.177Z,99.90
2022-10-20T07:11:53.356Z,99.90
2022-10-20T07:14:24.561Z,99.90
2022-10-20T07:16:53.900Z,99.90
2022-10-20T07:19:25.186Z,99.90
2022-10-20T07:21:56.213Z,99.90
2022-10-20T07:24:27.130Z,99.90
2022-10-20T07:26:56.869Z,99.90
2022-10-20T07:29:25.826Z,99.90
2022-10-20T07:31:56.016Z,99.90
2022-10-20T07:34:27.948Z,99.90
2022-10-20T07:37:01.859Z,99.90
2022-10-20T07:39:32.661Z,99.90
2022-10-20T07:42:02.002Z,99.90
2022-10-20T07:44:30.849Z,99.90
2022-10-20T07:46:59.501Z,99.90
2022-10-20T07:49:44.631Z,99.90
2022-10-20T07:52:16.826Z,99.90
2022-10-20T07:54:52.852Z,99.90
2022-10-20T07:57:24.669Z,99.90
2022-10-20T07:59:53.736Z,99.90
2022-10-20T08:02:24.037Z,99.90
2022-10-20T08:04:54.898Z,99.90
2022-10-20T08:07:24.389Z,99.90
2022-10-20T08:09:56.363Z,99.90
2022-10-20T08:12:26.069Z,99.90
2022-10-20T08:14:55.181Z,99.90
2022-10-20T08:17:26.981Z,99.90
2022-10-20T08:19:58.595Z,99.90
2022-10-20T08:22:27.425Z,99.90
2022-10-20T08:24:57.692Z,99.90
2022-10-20T08:27:27.161Z,99.90
2022-10-20T08:30:06.249Z,99.90
2022-10-20T08:32:42.436Z,99.90
2022-10-20T08:35:12.532Z,99.90
2022-10-20T08:37:42.144Z,99.90
2022-10-20T08:40:17.347Z,99.90
2022-10-20T08:42:48.619Z,99.90
2022-10-20T08:45:20.087Z,99.90
2022-10-20T08:47:51.970Z,99.90
2022-10-20T08:50:22.171Z,99.90
2022-10-20T08:52:57.053Z,99.40
2022-10-20T08:55:30.752Z,97.40
2022-10-20T08:58:03.819Z,99.90
2022-10-20T09:00:36.887Z,96.80
2022-10-20T09:03:17.928Z,98.10
2022-10-20T09:05:57.247Z,98.60
2022-10-20T09:08:32.784Z,95.70
2022-10-20T09:11:18.155Z,98.20
2022-10-20T09:16:35.060Z,95.60
2022-10-20T09:19:18.470Z,94.90
2022-10-20T09:21:51.216Z,95.50
2022-10-20T09:24:24.550Z,95.30
2022-10-20T09:27:00.104Z,92.30
2022-10-20T09:29:41.650Z,92.20
2022-10-20T09:32:51.400Z,93.50
2022-10-20T09:35:26.981Z,91.20
2022-10-20T09:38:03.968Z,90.60
2022-10-20T09:40:45.712Z,90.40
2022-10-20T09:43:20.994Z,85.80
2022-10-20T09:46:02.677Z,83.20
2022-10-20T09:48:40.918Z,84.80
2022-10-20T09:51:17.000Z,79.50
2022-10-20T09:53:58.425Z,85.10
2022-10-20T09:56:29.959Z,79.40
2022-10-20T09:59:08.653Z,83.40
2022-10-20T10:01:54.838Z,80.00
2022-10-20T10:04:42.898Z,75.10
2022-10-20T10:07:32.688Z,78.90
2022-10-20T10:10:07.305Z,75.10
2022-10-20T13:15:39.078Z,57.90
2022-10-20T13:18:17.210Z,59.60
2022-10-20T13:20:51.448Z,61.80
2022-10-20T13:23:25.108Z,60.30
2022-10-20T13:25:56.529Z,59.10
2022-10-20T13:28:28.739Z,58.90
2022-10-20T13:31:15.180Z,61.00
2022-10-20T13:34:03.969Z,62.10
2022-10-20T13:36:58.204Z,62.70
2022-10-20T13:39:37.071Z,62.10
2022-10-20T13:42:20.293Z,62.90
2022-10-20T13:45:00.871Z,61.70
2022-10-20T13:47:50.455Z,57.40
2022-10-20T13:50:25.347Z,59.50
2022-10-20T13:52:57.465Z,57.80
2022-10-20T13:55:30.564Z,59.00
2022-10-20T13:58:03.319Z,57.30
2022-10-20T14:00:36.651Z,58.20
2022-10-20T14:03:18.590Z,61.10
2022-10-20T14:05:47.889Z,60.80
2022-10-20T14:08:23.439Z,59.70
2022-10-20T14:10:56.487Z,62.50
2022-10-20T14:13:30.823Z,58.60
2022-10-20T14:16:02.118Z,59.10
2022-10-20T14:18:35.929Z,60.80
2022-10-20T14:21:08.863Z,61.30
2022-10-20T14:23:42.215Z,62.60
2022-10-20T14:26:16.637Z,65.20
2022-10-20T14:28:47.208Z,63.00
2022-10-20T14:31:17.573Z,63.40
2022-10-20T14:33:51.815Z,63.70
2022-10-20T14:36:24.749Z,63.20
2022-10-20T14:38:57.195Z,62.90
2022-10-20T14:41:29.143Z,64.00
2022-10-20T14:44:06.286Z,65.20
2022-10-20T14:46:41.919Z,65.30
2022-10-20T14:49:19.562Z,65.60
2022-10-20T14:51:58.179Z,66.70
2022-10-20T14:57:20.294Z,68.50
2022-10-20T15:00:03.104Z,69.00
2022-10-20T15:02:34.994Z,69.90
2022-10-20T15:05:33.631Z,69.20
2022-10-20T15:08:12.787Z,69.00
2022-10-20T15:10:44.130Z,70.50
2022-10-20T15:13:28.132Z,71.00
2022-10-20T15:15:58.982Z,72.30
2022-10-20T15:18:29.780Z,75.20
2022-10-20T15:21:04.573Z,76.90
2022-10-20T15:23:34.973Z,78.10
2022-10-20T15:26:07.476Z,79.80
2022-10-20T15:28:42.942Z,80.60
2022-10-20T15:31:23.171Z,82.30
2022-10-20T15:33:53.597Z,82.50
2022-10-20T15:36:32.438Z,83.30
2022-10-20T15:39:02.693Z,84.30
2022-10-20T15:41:35.539Z,85.20
2022-10-20T15:44:09.673Z,86.60
2022-10-20T15:46:39.473Z,87.10
2022-10-20T15:49:09.441Z,88.30
2022-10-20T15:51:43.284Z,89.10
2022-10-20T15:54:14.664Z,90.00
2022-10-20T15:56:44.425Z,90.70
2022-10-20T15:59:14.099Z,91.90
2022-10-20T16:01:44.231Z,92.70
2022-10-20T16:04:23.921Z,93.10
2022-10-20T16:06:58.938Z,93.90
2022-10-20T16:09:30.365Z,94.90
2022-10-20T16:11:59.785Z,95.80
2022-10-20T16:14:29.315Z,96.70
2022-10-20T16:17:02.250Z,97.30
2022-10-20T16:19:32.661Z,97.80
2022-10-20T16:22:03.982Z,98.20
2022-10-20T16:24:34.188Z,98.70
2022-10-20T16:27:06.786Z,99.00
2022-10-20T16:29:36.675Z,99.70
2022-10-20T16:32:08.741Z,99.90
2022-10-20T16:34:38.509Z,99.90
2022-10-20T16:37:10.619Z,99.90
2022-10-20T16:39:40.345Z,99.90
2022-10-20T16:42:10.277Z,99.90
2022-10-20T16:44:42.283Z,99.90
2022-10-20T16:47:13.194Z,99.90
2022-10-20T16:49:42.520Z,99.90
2022-10-20T16:52:14.066Z,99.90
2022-10-20T16:54:43.670Z,99.90
2022-10-20T16:57:14.400Z,99.90
2022-10-20T16:59:50.312Z,99.90
2022-10-20T17:02:20.987Z,99.90
2022-10-20T17:04:51.582Z,99.90
2022-10-20T17:07:22.671Z,99.90
2022-10-20T17:09:52.591Z,99.90
2022-10-20T17:12:22.473Z,99.90
2022-10-20T17:14:52.588Z,99.90
2022-10-20T17:17:22.428Z,99.90
2022-10-20T17:19:52.607Z,99.90
2022-10-20T17:22:24.319Z,99.90
2022-10-20T17:24:54.756Z,99.90
2022-10-20T17:27:24.499Z,99.90
2022-10-20T17:29:54.855Z,99.90
2022-10-20T17:32:24.672Z,99.90
2022-10-20T17:34:54.793Z,99.90
2022-10-20T17:37:26.944Z,99.90
2022-10-20T17:39:57.358Z,99.90
2022-10-20T17:42:27.739Z,99.90
2022-10-20T17:45:00.152Z,99.90
2022-10-20T17:47:30.670Z,99.90
2022-10-20T17:50:01.919Z,99.90
2022-10-20T17:52:34.913Z,99.90
2022-10-20T17:55:05.480Z,99.90
2022-10-20T17:57:35.216Z,99.90
2022-10-20T18:00:12.853Z,99.90
2022-10-20T18:02:49.971Z,99.90
2022-10-20T18:05:20.058Z,99.90
2022-10-20T18:07:51.316Z,99.90
2022-10-20T18:12:51.758Z,99.90
2022-10-20T18:15:21.446Z,99.90
2022-10-20T18:17:51.758Z,99.90
2022-10-20T18:20:21.918Z,99.90
2022-10-20T18:22:54.314Z,99.90
2022-10-20T18:25:24.798Z,99.90
2022-10-20T18:27:55.833Z,99.90
2022-10-20T18:30:25.974Z,99.90
2022-10-20T18:32:55.270Z,99.90
2022-10-20T18:35:26.722Z,99.90
2022-10-20T18:37:59.863Z,99.90
2022-10-20T18:40:30.233Z,99.90
2022-10-20T18:43:00.994Z,99.90
2022-10-20T18:45:30.671Z,99.90
2022-10-20T18:48:00.351Z,99.90
2022-10-20T18:50:30.775Z,99.90
2022-10-20T18:53:02.422Z,99.90
2022-10-20T18:55:31.799Z,99.90
2022-10-20T18:58:01.302Z,99.90
2022-10-20T19:00:31.145Z,99.90
2022-10-20T19:03:01.773Z,99.90
2022-10-20T19:05:31.447Z,99.90
2022-10-20T19:08:02.650Z,99.90
2022-10-20T19:10:31.746Z,99.90
2022-10-20T19:13:01.666Z,99.90
2022-10-20T19:15:32.423Z,99.90
2022-10-20T19:18:02.224Z,99.90
2022-10-20T19:20:33.118Z,99.90
2022-10-20T19:23:04.460Z,99.90
2022-10-20T19:25:35.053Z,99.90
2022-10-20T19:28:05.301Z,99.90
2022-10-20T19:30:37.941Z,99.90
2022-10-20T19:33:08.206Z,99.90
2022-10-20T19:35:38.180Z,99.90
2022-10-20T19:38:09.548Z,99.90
2022-10-20T19:40:40.312Z,99.90
2022-10-20T19:43:10.937Z,99.90
2022-10-20T19:45:40.720Z,99.90
2022-10-20T19:48:11.277Z,99.90
2022-10-20T19:50:41.404Z,99.90
2022-10-20T19:53:12.945Z,99.90
2022-10-20T19:55:42.732Z,99.90
2022-10-20T19:58:12.774Z,99.90
2022-10-20T20:00:46.457Z,99.90
2022-10-20T20:03:16.515Z,99.90
2022-10-20T20:05:48.385Z,99.90
2022-10-20T20:08:20.755Z,99.90
2022-10-20T20:10:55.048Z,99.90
2022-10-20T20:13:27.552Z,99.90
2022-10-20T20:15:58.453Z,99.90
2022-10-20T20:18:28.867Z,99.90
2022-10-20T20:21:03.245Z,99.90
2022-10-20T20:23:47.687Z,99.90
2022-10-20T20:26:27.655Z,99.90
2022-10-20T20:28:59.359Z,99.90
2022-10-20T20:31:31.666Z,99.90
2022-10-20T20:34:04.293Z,99.90
2022-10-20T20:36:37.249Z,99.90
2022-10-20T20:39:09.860Z,99.90
2022-10-20T20:41:40.072Z,99.90
2022-10-20T20:44:10.009Z,99.90
2022-10-20T20:46:40.655Z,99.90
2022-10-20T20:49:10.661Z,99.90
2022-10-20T20:51:41.134Z,99.90
2022-10-20T20:54:13.222Z,99.90
2022-10-20T20:56:43.558Z,99.90
2022-10-20T20:59:13.231Z,99.90
2022-10-20T21:01:45.906Z,99.90
2022-10-20T21:04:16.834Z,99.90
2022-10-20T21:07:01.816Z,99.90
2022-10-20T21:09:34.662Z,99.90
2022-10-20T21:12:07.117Z,99.90
2022-10-20T21:14:37.084Z,99.90
2022-10-20T21:17:06.738Z,99.90
2022-10-20T21:19:36.527Z,99.90
2022-10-20T21:22:06.354Z,99.90
2022-10-20T21:24:38.393Z,99.90
2022-10-20T21:27:08.425Z,99.90
2022-10-20T21:29:37.914Z,99.90
2022-10-20T21:32:08.446Z,99.90
2022-10-20T21:34:37.953Z,99.90
2022-10-20T21:37:08.602Z,99.90
2022-10-20T21:39:40.509Z,99.90
2022-10-20T21:42:10.153Z,99.90
2022-10-20T21:44:42.157Z,99.90
2022-10-20T21:47:13.060Z,99.90
2022-10-20T21:49:43.910Z,99.90
2022-10-20T21:52:14.171Z,99.90
2022-10-20T21:54:45.954Z,99.90
2022-10-20T21:57:17.214Z,99.90
2022-10-20T21:59:51.061Z,99.90
2022-10-20T22:02:21.659Z,99.90
2022-10-20T22:04:51.429Z,99.90
2022-10-20T22:07:21.577Z,99.90
2022-10-20T22:09:54.419Z,99.90
2022-10-20T22:12:24.773Z,99.90
2022-10-20T22:14:54.929Z,99.90
2022-10-20T22:17:24.544Z,99.90
2022-10-20T22:19:55.650Z,99.90
2022-10-20T22:22:28.049Z,99.90
2022-10-20T22:25:01.027Z,99.90
2022-10-20T22:27:42.260Z,99.90
2022-10-20T22:30:14.201Z,99.90
2022-10-20T22:32:44.119Z,99.90
2022-10-20T22:35:13.495Z,99.90
2022-10-20T22:37:43.772Z,99.90
2022-10-20T22:40:19.564Z,99.90
2022-10-20T22:42:49.261Z,99.90
2022-10-20T22:45:21.108Z,99.90
2022-10-20T22:47:51.388Z,99.90
2022-10-20T22:50:23.840Z,99.90
2022-10-20T22:52:55.979Z,99.90
2022-10-20T22:55:27.984Z,99.90
2022-10-20T23:00:28.878Z,99.90
2022-10-20T23:02:59.160Z,99.90
2022-10-20T23:05:29.454Z,99.90
2022-10-20T23:07:59.493Z,99.90
2022-10-20T23:10:31.343Z,99.90
2022-10-20T23:13:02.342Z,99.90
2022-10-20T23:15:32.835Z,99.90
2022-10-20T23:18:03.523Z,99.90
2022-10-20T23:20:34.592Z,99.90
2022-10-20T23:23:05.139Z,99.90
2022-10-20T23:25:37.371Z,99.90
2022-10-20T23:28:07.231Z,99.90
2022-10-20T23:30:37.904Z,99.90
2022-10-20T23:33:07.800Z,99.90
2022-10-20T23:35:39.739Z,99.90
2022-10-20T23:38:15.791Z,99.90
2022-10-20T23:40:47.557Z,99.90
2022-10-20T23:43:17.699Z,99.90
2022-10-20T23:45:48.578Z,99.90
2022-10-20T23:48:18.551Z,99.90
2022-10-20T23:50:50.618Z,99.90
2022-10-20T23:53:20.283Z,99.90
2022-10-20T23:55:57.450Z,99.90
2022-10-20T23:58:27.654Z,99.90
